createdAt,value
2022-08-17T00:00:13.608Z,13.10
2022-08-17T00:03:17.174Z,13.00
2022-08-17T00:06:03.936Z,12.80
2022-08-17T00:08:37.563Z,12.70
2022-08-17T00:11:11.546Z,12.70
2022-08-17T00:13:42.653Z,12.60
2022-08-17T00:16:21.032Z,12.60
2022-08-17T00:19:11.699Z,12.60
2022-08-17T00:21:59.991Z,12.60
2022-08-17T00:24:29.495Z,12.50
2022-08-17T00:26:56.590Z,12.50
2022-08-17T00:29:23.710Z,12.40
2022-08-17T00:31:51.611Z,12.30
2022-08-17T00:34:19.106Z,12.30
2022-08-17T00:36:46.312Z,12.20
2022-08-17T00:39:13.438Z,12.00
2022-08-17T00:41:42.548Z,11.90
2022-08-17T00:44:11.074Z,11.80
2022-08-17T00:46:42.270Z,11.80
2022-08-17T00:49:11.810Z,11.60
2022-08-17T00:51:44.380Z,11.60
2022-08-17T00:54:23.824Z,11.50
2022-08-17T00:56:56.937Z,11.50
2022-08-17T00:59:27.944Z,11.50
2022-08-17T01:01:55.073Z,11.40
2022-08-17T01:04:22.975Z,11.30
2022-08-17T01:06:51.328Z,11.30
2022-08-17T01:09:19.754Z,11.30
2022-08-17T01:11:52.439Z,11.30
2022-08-17T01:14:21.848Z,11.30
2022-08-17T01:16:51.392Z,11.30
2022-08-17T01:19:22.073Z,11.30
2022-08-17T01:22:12.979Z,11.20
2022-08-17T01:24:43.316Z,11.20
2022-08-17T01:27:11.413Z,11.20
2022-08-17T01:29:41.263Z,11.10
2022-08-17T01:32:09.479Z,11.10
2022-08-17T01:34:43.639Z,11.10
2022-08-17T01:37:19.085Z,11.10
2022-08-17T01:39:52.722Z,11.10
2022-08-17T01:42:30.871Z,11.10
2022-08-17T01:45:02.477Z,11.20
2022-08-17T01:47:29.909Z,11.20
2022-08-17T01:49:58.313Z,11.20
2022-08-17T01:52:25.519Z,11.30
2022-08-17T01:54:53.504Z,11.30
2022-08-17T01:57:20.674Z,11.30
2022-08-17T01:59:47.888Z,11.30
2022-08-17T02:02:31.175Z,11.30
2022-08-17T02:04:59.218Z,11.30
2022-08-17T02:07:27.140Z,11.30
2022-08-17T02:09:54.747Z,11.30
2022-08-17T02:12:47.444Z,11.20
2022-08-17T02:15:12.668Z,11.20
2022-08-17T02:17:41.130Z,11.20
2022-08-17T02:20:09.914Z,11.10
2022-08-17T02:22:40.238Z,11.00
2022-08-17T02:25:09.769Z,11.00
2022-08-17T02:27:38.618Z,10.90
2022-08-17T02:31:00.886Z,10.90
2022-08-17T02:32:56.267Z,10.80
2022-08-17T02:35:24.029Z,10.70
2022-08-17T02:37:51.950Z,10.70
2022-08-17T02:40:36.213Z,10.70
2022-08-17T02:43:04.394Z,10.60
2022-08-17T02:45:31.563Z,10.60
2022-08-17T02:47:58.720Z,10.60
2022-08-17T02:50:26.526Z,10.50
2022-08-17T02:53:02.421Z,10.50
2022-08-17T02:55:36.181Z,10.50
2022-08-17T02:58:04.176Z,10.50
2022-08-17T03:00:35.619Z,10.50
2022-08-17T03:03:04.861Z,10.60
2022-08-17T03:05:34.026Z,10.60
2022-08-17T03:08:01.403Z,10.50
2022-08-17T03:10:29.889Z,10.50
2022-08-17T03:12:56.932Z,10.40
2022-08-17T03:15:27.106Z,10.40
2022-08-17T03:17:55.756Z,10.40
2022-08-17T03:20:25.134Z,10.40
2022-08-17T03:22:55.243Z,10.40
2022-08-17T03:25:32.378Z,10.40
2022-08-17T03:28:01.796Z,10.40
2022-08-17T03:30:29.988Z,10.40
2022-08-17T03:33:00.337Z,10.40
2022-08-17T04:34:27.440Z,11.00
2022-08-17T04:36:55.073Z,12.10
2022-08-17T04:39:24.268Z,13.10
2022-08-17T04:42:17.270Z,13.70
2022-08-17T04:44:44.684Z,14.50
2022-08-17T04:47:11.885Z,15.40
2022-08-17T04:49:40.381Z,16.00
2022-08-17T04:52:07.428Z,16.60
2022-08-17T04:54:54.509Z,17.10
2022-08-17T04:57:21.600Z,17.60
2022-08-17T04:59:48.661Z,18.10
2022-08-17T05:02:15.682Z,18.50
2022-08-17T05:04:42.710Z,19.30
2022-08-17T05:07:10.624Z,20.10
2022-08-17T05:09:38.626Z,19.80
2022-08-17T05:12:06.445Z,20.10
2022-08-17T05:14:34.014Z,20.80
2022-08-17T05:17:01.731Z,21.80
2022-08-17T05:19:34.138Z,22.60
2022-08-17T05:22:05.711Z,23.20
2022-08-17T05:24:42.578Z,23.80
2022-08-17T05:27:19.169Z,24.60
2022-08-17T05:29:46.643Z,25.20
2022-08-17T05:32:38.000Z,25.40
2022-08-17T05:35:01.824Z,25.30
2022-08-17T05:37:28.904Z,25.60
2022-08-17T05:39:56.090Z,26.20
2022-08-17T05:42:24.452Z,26.90
2022-08-17T05:44:51.679Z,27.60
2022-08-17T05:47:18.917Z,28.50
2022-08-17T05:49:49.055Z,29.10
2022-08-17T05:52:35.038Z,29.90
2022-08-17T05:55:10.986Z,30.10
2022-08-17T05:58:01.454Z,30.00
2022-08-17T06:00:37.175Z,29.90
2022-08-17T06:03:24.405Z,30.50
2022-08-17T06:05:58.617Z,31.10
2022-08-17T06:08:35.114Z,32.40
2022-08-17T06:11:10.935Z,33.40
2022-08-17T06:13:53.169Z,33.20
2022-08-17T06:16:34.405Z,33.20
2022-08-17T06:19:10.875Z,32.70
2022-08-17T06:21:42.727Z,32.00
2022-08-17T06:24:21.835Z,32.40
2022-08-17T06:26:50.137Z,32.30
2022-08-17T06:29:40.093Z,32.10
2022-08-17T06:32:09.336Z,31.40
2022-08-17T06:34:41.400Z,31.00
2022-08-17T06:37:42.827Z,31.50
2022-08-17T06:40:50.320Z,31.70
2022-08-17T06:43:40.373Z,31.90
2022-08-17T06:46:22.030Z,31.50
2022-08-17T06:49:13.964Z,31.80
2022-08-17T06:51:52.281Z,32.50
2022-08-17T06:54:40.741Z,33.10
2022-08-17T06:57:28.541Z,32.90
2022-08-17T07:00:17.653Z,31.30
2022-08-17T07:02:55.738Z,29.90
2022-08-17T07:05:38.822Z,30.60
2022-08-17T07:08:18.690Z,31.00
2022-08-17T07:10:54.444Z,31.40
2022-08-17T07:13:33.363Z,31.90
2022-08-17T07:16:15.129Z,32.40
2022-08-17T07:18:43.983Z,32.10
2022-08-17T07:21:26.745Z,32.40
2022-08-17T07:24:29.198Z,32.20
2022-08-17T07:27:28.447Z,31.30
2022-08-17T07:30:10.643Z,30.70
2022-08-17T07:32:45.363Z,29.70
2022-08-17T07:35:18.265Z,29.30
2022-08-17T07:38:07.302Z,28.90
2022-08-17T07:41:13.836Z,28.50
2022-08-17T07:43:40.998Z,27.60
2022-08-17T07:46:43.289Z,27.10
2022-08-17T07:49:10.402Z,26.70
2022-08-17T07:51:59.986Z,25.70
2022-08-17T07:54:42.532Z,25.20
2022-08-17T07:57:15.363Z,25.00
2022-08-17T08:00:02.359Z,24.60
2022-08-17T08:02:45.787Z,24.50
2022-08-17T08:05:46.619Z,24.50
2022-08-17T08:08:30.302Z,24.50
2022-08-17T08:11:07.374Z,24.90
2022-08-17T08:13:36.202Z,25.00
2022-08-17T08:16:20.100Z,25.20
2022-08-17T08:18:56.085Z,24.90
2022-08-17T08:21:59.241Z,24.80
2022-08-17T08:24:52.377Z,24.80
2022-08-17T08:27:52.289Z,24.60
2022-08-17T08:30:21.612Z,24.50
2022-08-17T08:33:04.444Z,24.70
2022-08-17T08:35:45.789Z,24.90
2022-08-17T08:38:37.933Z,25.10
2022-08-17T08:41:23.095Z,25.40
2022-08-17T08:44:21.823Z,25.50
2022-08-17T08:47:25.298Z,25.50
2022-08-17T08:50:37.437Z,26.00
2022-08-17T08:53:12.253Z,26.20
2022-08-17T08:56:04.697Z,25.80
2022-08-17T08:58:43.677Z,25.60
2022-08-17T09:01:26.037Z,25.80
2022-08-17T09:04:24.812Z,25.70
2022-08-17T09:07:17.403Z,25.30
2022-08-17T09:09:58.693Z,24.60
2022-08-17T09:12:47.798Z,24.60
2022-08-17T09:15:33.637Z,24.70
2022-08-17T09:19:03.121Z,24.90
2022-08-17T09:21:58.186Z,24.60
2022-08-17T09:24:49.275Z,25.00
2022-08-17T09:27:16.224Z,25.20
2022-08-17T09:29:57.893Z,25.60
2022-08-17T09:32:29.227Z,25.80
2022-08-17T09:35:02.203Z,25.30
2022-08-17T09:37:41.967Z,25.20
2022-08-17T09:40:33.990Z,25.50
2022-08-17T09:43:22.615Z,25.80
2022-08-17T09:45:57.399Z,25.40
2022-08-17T09:48:33.291Z,25.70
2022-08-17T09:51:15.630Z,25.40
2022-08-17T09:53:44.685Z,25.40
2022-08-17T09:56:18.160Z,25.30
2022-08-17T09:59:06.441Z,25.10
2022-08-17T10:01:40.034Z,24.80
2022-08-17T10:04:20.312Z,24.80
2022-08-17T10:07:11.693Z,24.80
2022-08-17T10:10:14.402Z,24.60
2022-08-17T10:13:03.359Z,24.50
2022-08-17T10:15:53.924Z,24.40
2022-08-17T10:18:35.380Z,24.50
2022-08-17T10:21:32.495Z,24.80
2022-08-17T10:24:39.476Z,25.00
2022-08-17T10:27:45.131Z,24.80
2022-08-17T10:30:17.803Z,24.30
2022-08-17T10:32:55.921Z,24.30
2022-08-17T10:35:42.219Z,24.50
2022-08-17T10:38:25.523Z,24.40
2022-08-17T10:41:04.602Z,24.10
2022-08-17T10:43:34.542Z,24.30
2022-08-17T10:46:31.310Z,24.60
2022-08-17T10:49:17.232Z,24.70
2022-08-17T10:51:48.066Z,24.60
2022-08-17T10:54:24.374Z,24.30
2022-08-17T10:56:56.987Z,24.70
2022-08-17T10:59:36.221Z,24.90
2022-08-17T11:02:32.127Z,25.30
2022-08-17T11:05:28.822Z,25.30
2022-08-17T11:08:17.532Z,25.50
2022-08-17T11:10:52.301Z,25.50
2022-08-17T11:13:23.269Z,25.60
2022-08-17T11:16:22.021Z,25.00
2022-08-17T11:19:10.803Z,25.30
2022-08-17T11:22:11.937Z,25.80
2022-08-17T11:24:48.112Z,26.10
2022-08-17T11:27:32.543Z,26.20
2022-08-17T11:30:11.082Z,25.90
2022-08-17T11:32:54.720Z,25.90
2022-08-17T11:35:22.465Z,26.10
2022-08-17T11:37:52.646Z,26.30
2022-08-17T11:40:35.160Z,26.30
2022-08-17T11:43:08.363Z,26.50
2022-08-17T11:45:44.301Z,26.80
2022-08-17T11:48:51.422Z,26.80
2022-08-17T11:51:34.316Z,27.10
2022-08-17T11:54:34.397Z,27.20
2022-08-17T11:57:27.665Z,27.40
2022-08-17T12:00:12.619Z,27.90
2022-08-17T12:02:48.806Z,27.90
2022-08-17T12:05:21.179Z,28.00
2022-08-17T12:07:52.415Z,27.90
2022-08-17T12:10:30.508Z,28.00
2022-08-17T12:12:59.579Z,27.90
2022-08-17T12:15:34.693Z,28.00
2022-08-17T12:18:01.939Z,28.50
2022-08-17T12:20:34.918Z,28.90
2022-08-17T12:23:17.052Z,29.10
2022-08-17T12:25:47.788Z,29.40
2022-08-17T12:28:30.478Z,28.90
2022-08-17T12:31:06.249Z,28.30
2022-08-17T12:33:35.930Z,28.10
2022-08-17T12:36:08.665Z,28.20
2022-08-17T12:38:38.054Z,28.00
2022-08-17T12:41:25.905Z,27.70
2022-08-17T12:44:02.465Z,27.30
2022-08-17T12:46:55.619Z,27.60
2022-08-17T12:49:26.980Z,27.80
2022-08-17T12:52:12.547Z,27.60
2022-08-17T12:54:51.644Z,27.60
2022-08-17T12:57:26.040Z,27.70
2022-08-17T13:00:20.124Z,27.80
2022-08-17T13:02:51.069Z,27.70
2022-08-17T13:05:37.340Z,27.80
2022-08-17T13:08:20.749Z,27.80
2022-08-17T13:10:57.084Z,27.70
2022-08-17T13:13:27.063Z,27.70
2022-08-17T13:16:02.277Z,28.10
2022-08-17T13:18:47.078Z,28.20
2022-08-17T13:21:30.702Z,28.40
2022-08-17T13:23:59.248Z,28.80
2022-08-17T13:26:35.217Z,29.10
2022-08-17T13:29:05.895Z,29.50
2022-08-17T13:31:53.018Z,29.50
2022-08-17T13:34:27.046Z,29.20
2022-08-17T13:37:30.006Z,29.20
2022-08-17T13:40:00.266Z,29.30
2022-08-17T13:42:33.382Z,29.10
2022-08-17T13:45:36.053Z,29.10
2022-08-17T13:48:15.943Z,29.30
2022-08-17T13:50:43.205Z,29.30
2022-08-17T13:53:32.828Z,29.30
2022-08-17T13:56:00.120Z,29.20
2022-08-17T13:58:28.764Z,29.20
2022-08-17T14:00:56.481Z,29.30
2022-08-17T14:03:24.884Z,29.40
2022-08-17T14:05:53.110Z,29.40
2022-08-17T14:08:21.067Z,29.40
2022-08-17T14:10:58.206Z,29.60
2022-08-17T14:13:25.436Z,29.80
2022-08-17T14:15:54.890Z,29.80
2022-08-17T14:18:52.007Z,29.80
2022-08-17T14:21:11.963Z,29.70
2022-08-17T14:23:39.434Z,29.80
2022-08-17T14:26:06.694Z,29.70
2022-08-17T14:28:33.756Z,29.70
2022-08-17T14:31:03.716Z,29.90
2022-08-17T14:33:30.766Z,29.90
2022-08-17T14:35:58.258Z,30.00
2022-08-17T14:38:25.343Z,30.10
2022-08-17T14:40:52.757Z,29.90
2022-08-17T14:43:20.569Z,29.60
2022-08-17T14:45:47.684Z,29.20
2022-08-17T14:48:14.887Z,29.00
2022-08-17T14:50:44.244Z,28.70
2022-08-17T14:53:13.621Z,28.30
2022-08-17T14:55:40.789Z,27.90
2022-08-17T14:58:09.166Z,27.60
2022-08-17T15:00:37.567Z,27.50
2022-08-17T15:03:05.492Z,27.70
2022-08-17T15:05:35.279Z,27.90
2022-08-17T15:08:02.895Z,28.00
2022-08-17T15:10:30.479Z,27.60
2022-08-17T15:12:58.522Z,27.40
2022-08-17T15:15:25.915Z,27.40
2022-08-17T15:17:53.227Z,27.30
2022-08-17T15:20:27.757Z,27.10
2022-08-17T15:22:57.393Z,26.90
2022-08-17T15:25:27.848Z,26.80
2022-08-17T15:27:56.122Z,26.90
2022-08-17T15:30:26.700Z,27.00
2022-08-17T15:32:55.239Z,27.10
2022-08-17T15:35:29.313Z,27.20
2022-08-17T15:38:07.878Z,27.40
2022-08-17T15:40:39.456Z,27.60
2022-08-17T15:43:13.228Z,27.70
2022-08-17T15:45:41.106Z,27.90
2022-08-17T15:48:09.148Z,27.90
2022-08-17T15:50:36.686Z,27.80
2022-08-17T15:53:05.031Z,27.60
2022-08-17T15:55:33.537Z,27.60
2022-08-17T15:58:01.942Z,27.60
2022-08-17T16:00:29.669Z,27.60
2022-08-17T16:03:45.399Z,27.70
2022-08-17T16:05:47.486Z,27.60
2022-08-17T16:08:20.019Z,27.60
2022-08-17T16:10:49.530Z,27.50
2022-08-17T16:13:18.173Z,27.40
2022-08-17T16:15:56.669Z,27.10
2022-08-17T16:18:26.668Z,27.00
2022-08-17T16:20:53.798Z,27.00
2022-08-17T16:23:20.898Z,26.90
2022-08-17T16:25:52.798Z,26.90
2022-08-17T16:28:22.738Z,26.80
2022-08-17T16:31:03.461Z,26.70
2022-08-17T16:33:30.508Z,26.60
2022-08-17T16:35:57.671Z,26.60
2022-08-17T16:38:24.808Z,26.60
2022-08-17T16:40:51.890Z,26.50
2022-08-17T16:43:18.914Z,26.40
2022-08-17T16:45:51.877Z,26.30
2022-08-17T16:48:19.893Z,26.20
2022-08-17T16:50:59.942Z,25.90
2022-08-17T16:53:31.680Z,25.70
2022-08-17T16:55:58.809Z,25.50
2022-08-17T16:58:25.847Z,25.30
2022-08-17T17:00:59.688Z,25.30
2022-08-17T17:03:29.294Z,25.20
2022-08-17T17:06:07.494Z,25.20
2022-08-17T17:08:58.773Z,25.00
2022-08-17T17:11:41.585Z,24.90
2022-08-17T17:14:28.473Z,24.70
2022-08-17T17:17:10.914Z,24.60
2022-08-17T17:20:05.766Z,24.50
2022-08-17T17:23:07.835Z,24.40
2022-08-17T17:25:54.946Z,24.30
2022-08-17T17:28:33.647Z,24.20
2022-08-17T17:31:08.169Z,24.10
2022-08-17T17:33:50.667Z,23.90
2022-08-17T17:36:40.130Z,23.80
2022-08-17T17:39:15.408Z,23.80
2022-08-17T17:41:53.034Z,23.60
2022-08-17T17:44:41.063Z,23.60
2022-08-17T17:47:08.632Z,23.40
2022-08-17T17:49:45.449Z,23.30
2022-08-17T17:52:21.051Z,23.20
2022-08-17T17:54:54.150Z,23.10
2022-08-17T17:57:25.015Z,22.90
2022-08-17T18:00:10.366Z,22.80
2022-08-17T18:02:55.364Z,22.70
2022-08-17T18:05:34.460Z,22.60
2022-08-17T18:08:46.703Z,22.50
2022-08-17T18:11:36.357Z,22.40
2022-08-17T18:14:14.507Z,22.20
2022-08-17T18:16:46.487Z,22.10
2022-08-17T18:19:20.876Z,22.00
2022-08-17T18:21:54.596Z,22.00
2022-08-17T18:24:35.091Z,21.90
2022-08-17T18:27:08.668Z,21.90
2022-08-17T18:29:44.335Z,21.70
2022-08-17T18:32:28.634Z,21.60
2022-08-17T18:35:28.001Z,21.50
2022-08-17T18:38:20.085Z,21.50
2022-08-17T18:41:01.863Z,21.40
2022-08-17T18:43:44.265Z,21.40
2022-08-17T18:46:28.869Z,21.30
2022-08-17T18:49:00.742Z,21.30
2022-08-17T18:51:42.336Z,21.30
2022-08-17T18:54:16.734Z,21.20
2022-08-17T18:56:48.938Z,21.10
2022-08-17T18:59:23.274Z,21.10
2022-08-17T19:02:20.679Z,21.00
2022-08-17T19:05:08.169Z,20.90
2022-08-17T19:07:45.580Z,20.80
2022-08-17T19:10:24.304Z,20.70
2022-08-17T19:13:24.510Z,20.70
2022-08-17T19:16:15.763Z,20.60
2022-08-17T19:18:54.425Z,20.40
2022-08-17T19:21:33.461Z,20.40
2022-08-17T19:24:30.417Z,20.20
2022-08-17T19:27:19.815Z,20.10
2022-08-17T19:30:01.717Z,20.00
2022-08-17T19:32:34.784Z,19.90
2022-08-17T19:35:04.288Z,19.90
2022-08-17T19:37:50.166Z,19.80
2022-08-17T19:40:54.056Z,19.80
2022-08-17T19:43:59.351Z,19.80
2022-08-17T19:46:35.700Z,19.80
2022-08-17T19:49:32.988Z,19.80
2022-08-17T19:52:27.292Z,19.80
2022-08-17T19:55:21.045Z,19.80
2022-08-17T19:57:52.911Z,19.90
2022-08-17T20:00:20.139Z,19.90
2022-08-17T20:03:16.427Z,19.90
2022-08-17T20:06:15.082Z,19.90
2022-08-17T20:09:01.263Z,19.90
2022-08-17T20:11:48.904Z,19.90
2022-08-17T20:14:22.102Z,19.80
2022-08-17T20:16:49.427Z,19.80
2022-08-17T20:19:56.496Z,19.80
2022-08-17T20:22:30.458Z,19.70
2022-08-17T20:25:07.335Z,19.70
2022-08-17T20:27:47.885Z,19.70
2022-08-17T20:30:34.957Z,19.60
2022-08-17T20:33:02.847Z,19.50
2022-08-17T20:35:32.771Z,19.40
2022-08-17T20:38:12.932Z,19.30
2022-08-17T20:40:59.918Z,19.30
2022-08-17T20:43:33.061Z,19.10
2022-08-17T20:46:21.602Z,19.10
2022-08-17T20:48:57.058Z,19.00
2022-08-17T20:51:29.794Z,19.00
2022-08-17T20:54:19.587Z,19.00
2022-08-17T20:56:49.900Z,19.00
2022-08-17T20:59:25.762Z,19.00
2022-08-17T21:02:21.947Z,18.90
2022-08-17T21:04:53.032Z,18.90
2022-08-17T21:07:43.431Z,18.80
2022-08-17T21:10:19.692Z,18.80
2022-08-17T21:12:53.925Z,18.70
2022-08-17T21:15:42.285Z,18.60
2022-08-17T21:18:27.442Z,18.60
2022-08-17T21:21:18.048Z,18.60
2022-08-17T21:24:02.087Z,18.60
2022-08-17T21:26:50.590Z,18.60
2022-08-17T21:29:31.046Z,18.50
2022-08-17T21:32:00.637Z,18.50
2022-08-17T21:34:33.296Z,18.50
2022-08-17T21:37:23.393Z,18.40
2022-08-17T21:39:55.901Z,18.40
2022-08-17T21:42:32.234Z,18.40
2022-08-17T21:45:12.589Z,18.40
2022-08-17T21:47:43.555Z,18.40
2022-08-17T21:50:20.328Z,18.40
2022-08-17T21:52:48.890Z,18.40
2022-08-17T21:55:29.824Z,18.30
2022-08-17T21:58:19.609Z,18.20
2022-08-17T22:00:46.720Z,18.20
2022-08-17T22:03:26.257Z,18.10
2022-08-17T22:05:53.430Z,18.10
2022-08-17T22:08:23.740Z,18.10
2022-08-17T22:10:59.644Z,18.10
2022-08-17T22:13:29.637Z,18.00
2022-08-17T22:16:27.716Z,18.00
2022-08-17T22:18:58.242Z,18.00
2022-08-17T22:21:26.466Z,17.90
2022-08-17T22:24:06.827Z,18.00
2022-08-17T22:27:05.189Z,18.10
2022-08-17T22:29:57.665Z,18.30
2022-08-17T22:32:46.516Z,18.50
2022-08-17T22:35:34.955Z,18.60
2022-08-17T22:38:20.510Z,18.30
2022-08-17T22:40:52.050Z,17.70
2022-08-17T22:43:28.965Z,17.40
2022-08-17T22:46:00.207Z,17.10
2022-08-17T22:48:29.584Z,16.80
2022-08-17T22:51:13.708Z,16.50
2022-08-17T22:54:12.481Z,16.10
2022-08-17T22:57:18.907Z,15.80
2022-08-17T22:59:50.637Z,15.40
2022-08-17T23:02:23.729Z,15.20
2022-08-17T23:05:00.401Z,14.90
2022-08-17T23:07:27.472Z,14.80
2022-08-17T23:09:54.653Z,14.60
2022-08-17T23:12:26.611Z,14.50
2022-08-17T23:15:01.407Z,14.60
2022-08-17T23:17:35.073Z,14.70
2022-08-17T23:20:08.473Z,14.70
2022-08-17T23:22:38.296Z,14.60
2022-08-17T23:25:28.238Z,14.70
2022-08-17T23:27:57.542Z,14.60
2022-08-17T23:30:25.746Z,14.40
2022-08-17T23:32:59.536Z,14.10
2022-08-17T23:35:39.042Z,13.90
2022-08-17T23:38:12.307Z,13.70
2022-08-17T23:40:40.612Z,13.60
2022-08-17T23:43:23.777Z,13.50
2022-08-17T23:45:54.246Z,13.50
2022-08-17T23:48:28.555Z,13.50
2022-08-17T23:51:06.040Z,13.50
2022-08-17T23:53:35.052Z,13.50
2022-08-17T23:56:04.000Z,13.40
2022-08-17T23:58:38.663Z,13.40
